Time;durP1;ratioP1;P1;durP2;ratioP2;P2;SDS_P1;SDS_P2;PMS_P1;PMS_P2;Temp;Humidity;BMP_temperature;BMP_pressure;BME280_temperature;BME280_humidity;BME280_pressure;Samples;Min_cycle;Max_cycle;Signal;HPM_P1;HPM_P2
2023/09/30 00:00:43;;;;;;;8.80;3.73;;;15.50;99.90;;;;;;5072622;28;20202;-73
2023/09/30 00:03:10;;;;;;;10.57;4.53;;;15.50;99.90;;;;;;5072857;28;20584;-73
2023/09/30 00:05:37;;;;;;;9.03;4.17;;;15.40;99.90;;;;;;5055844;28;20590;-73
2023/09/30 00:08:03;;;;;;;6.50;3.73;;;15.40;99.90;;;;;;5072664;28;20764;-73
2023/09/30 00:10:30;;;;;;;8.33;3.80;;;15.40;99.90;;;;;;5090085;28;20681;-74
2023/09/30 00:12:56;;;;;;;7.27;3.53;;;15.40;99.90;;;;;;5090830;28;20580;-73
2023/09/30 00:15:22;;;;;;;8.70;3.60;;;15.30;99.90;;;;;;5072408;28;20639;-73
2023/09/30 00:17:48;;;;;;;5.73;3.47;;;15.30;99.90;;;;;;5080317;28;20610;-73
2023/09/30 00:20:17;;;;;;;6.70;3.30;;;15.30;99.90;;;;;;5070437;28;20586;-73
2023/09/30 00:22:43;;;;;;;8.40;3.40;;;15.30;99.90;;;;;;5070381;28;20172;-73
2023/09/30 00:25:10;;;;;;;7.27;3.67;;;15.30;99.90;;;;;;5052366;28;20578;-73
2023/09/30 00:27:36;;;;;;;6.50;2.80;;;15.30;99.90;;;;;;5070296;28;20722;-73
2023/09/30 00:30:03;;;;;;;5.27;2.90;;;15.20;99.90;;;;;;5052588;28;20663;-73
2023/09/30 00:32:29;;;;;;;6.13;2.30;;;15.20;99.90;;;;;;5052391;28;20587;-73
2023/09/30 00:34:54;;;;;;;6.40;2.53;;;15.20;99.90;;;;;;5035535;28;20664;-73
2023/09/30 00:37:20;;;;;;;8.10;2.97;;;15.20;99.90;;;;;;5052437;28;20569;-73
2023/09/30 00:39:46;;;;;;;7.23;3.23;;;15.20;99.90;;;;;;5070404;28;20260;-73
2023/09/30 00:42:12;;;;;;;4.10;2.43;;;15.20;99.90;;;;;;5052568;28;20673;-73
2023/09/30 00:44:38;;;;;;;7.50;3.00;;;15.20;99.90;;;;;;5052162;28;21032;-72
2023/09/30 00:47:04;;;;;;;6.60;3.60;;;15.20;99.90;;;;;;5070031;28;20610;-73
2023/09/30 00:49:31;;;;;;;8.57;2.95;;;15.30;99.90;;;;;;5032436;28;20185;-73
2023/09/30 00:51:57;;;;;;;6.43;2.63;;;15.30;99.90;;;;;;5072253;28;20180;-73
2023/09/30 00:54:25;;;;;;;3.87;2.10;;;15.30;99.90;;;;;;5072068;28;20639;-73
2023/09/30 00:56:52;;;;;;;9.20;3.17;;;15.30;99.90;;;;;;5055545;28;20612;-73
2023/09/30 00:59:19;;;;;;;6.10;2.70;;;15.30;99.90;;;;;;5090313;28;20670;-72
2023/09/30 01:01:46;;;;;;;7.80;3.00;;;15.30;99.90;;;;;;5090189;28;20672;-73
2023/09/30 01:04:12;;;;;;;6.57;3.10;;;15.30;99.90;;;;;;5045376;28;20683;-73
2023/09/30 01:06:38;;;;;;;5.53;3.17;;;15.30;99.90;;;;;;5035258;28;20634;-72
2023/09/30 01:09:05;;;;;;;9.50;3.07;;;15.30;99.90;;;;;;5052059;28;21062;-73
2023/09/30 01:11:31;;;;;;;9.47;3.20;;;15.30;99.90;;;;;;5052196;28;20595;-73
2023/09/30 01:13:57;;;;;;;4.40;2.70;;;15.30;99.90;;;;;;5035429;28;20642;-73
2023/09/30 01:16:23;;;;;;;5.47;2.57;;;15.30;99.90;;;;;;5035214;28;20648;-73
2023/09/30 01:18:49;;;;;;;7.07;3.08;;;15.30;99.90;;;;;;5062631;28;20609;-73
2023/09/30 01:21:15;;;;;;;5.23;2.07;;;15.30;99.90;;;;;;5072786;28;20164;-72
2023/09/30 01:23:41;;;;;;;7.80;3.10;;;15.30;99.90;;;;;;5076697;28;20660;-73
2023/09/30 01:26:12;;;;;;;4.83;2.70;;;15.30;99.90;;;;;;5079336;28;20595;-73
2023/09/30 01:28:39;;;;;;;4.00;1.90;;;15.30;99.90;;;;;;5075236;28;20327;-73
2023/09/30 01:31:05;;;;;;;6.23;2.20;;;15.30;99.90;;;;;;5075463;28;20639;-73
2023/09/30 01:33:32;;;;;;;5.83;2.50;;;15.30;99.90;;;;;;5043264;28;20984;-73
2023/09/30 01:35:58;;;;;;;7.43;2.30;;;15.30;99.90;;;;;;5074959;28;20593;-73
2023/09/30 01:38:24;;;;;;;10.50;2.50;;;15.30;99.90;;;;;;5075253;28;20282;-73
2023/09/30 01:40:49;;;;;;;7.97;3.77;;;15.30;99.90;;;;;;5075402;28;20673;-73
2023/09/30 01:43:16;;;;;;;5.00;2.50;;;15.30;99.90;;;;;;5075171;28;20176;-73
2023/09/30 01:45:42;;;;;;;6.00;2.27;;;15.30;99.90;;;;;;5075145;28;20225;-73
2023/09/30 01:48:11;;;;;;;10.17;2.93;;;15.30;99.90;;;;;;5075089;28;20649;-73
2023/09/30 01:50:38;;;;;;;8.30;2.33;;;15.30;99.90;;;;;;5058363;28;21233;-73
2023/09/30 01:53:09;;;;;;;9.10;2.47;;;15.30;99.90;;;;;;5075148;28;20667;-73
2023/09/30 01:55:38;;;;;;;7.20;2.97;;;15.30;99.90;;;;;;5058197;28;20574;-73
2023/09/30 01:58:04;;;;;;;6.17;2.17;;;15.30;99.90;;;;;;5074828;28;20634;-73
2023/09/30 02:00:30;;;;;;;6.50;2.40;;;15.30;99.90;;;;;;5053885;28;20596;-73
2023/09/30 02:02:56;;;;;;;9.27;2.90;;;15.30;99.90;;;;;;5076162;28;20583;-72
2023/09/30 02:05:23;;;;;;;8.00;3.07;;;15.30;99.90;;;;;;5058003;28;20739;-73
2023/09/30 02:07:50;;;;;;;8.27;3.00;;;15.30;99.90;;;;;;5070241;28;20203;-73
2023/09/30 02:10:18;;;;;;;5.67;3.07;;;15.30;99.90;;;;;;5018322;28;20943;-73
2023/09/30 02:12:45;;;;;;;8.37;2.83;;;15.30;99.90;;;;;;5079003;28;20577;-73
2023/09/30 02:15:12;;;;;;;8.33;2.30;;;15.30;99.90;;;;;;5092582;28;20585;-73
2023/09/30 02:17:38;;;;;;;5.60;2.90;;;15.30;99.90;;;;;;5057778;28;20629;-73
2023/09/30 02:20:07;;;;;;;7.20;2.57;;;15.30;99.90;;;;;;5057761;28;20964;-73
2023/09/30 02:22:33;;;;;;;8.30;3.33;;;15.30;99.90;;;;;;5054807;28;20182;-73
2023/09/30 02:24:58;;;;;;;5.07;2.75;;;15.20;99.90;;;;;;5075517;28;20682;-73
2023/09/30 02:27:24;;;;;;;10.00;3.47;;;15.20;99.90;;;;;;5074245;28;20739;-73
2023/09/30 02:29:50;;;;;;;5.70;2.70;;;15.20;99.90;;;;;;5074414;28;20251;-73
2023/09/30 02:32:16;;;;;;;4.63;3.33;;;15.20;99.90;;;;;;5074186;28;20168;-73
2023/09/30 02:34:44;;;;;;;7.20;3.20;;;15.20;99.90;;;;;;5073766;28;20199;-73
2023/09/30 02:37:10;;;;;;;9.80;3.33;;;15.10;99.90;;;;;;5074178;28;20610;-73
2023/09/30 02:39:37;;;;;;;10.20;3.50;;;15.10;99.90;;;;;;5074179;28;20588;-73
2023/09/30 02:42:03;;;;;;;6.23;3.53;;;15.10;99.90;;;;;;5074317;28;20175;-73
2023/09/30 02:44:29;;;;;;;9.60;3.87;;;15.10;99.90;;;;;;5057211;28;20582;-73
2023/09/30 02:46:55;;;;;;;7.00;3.00;;;15.10;99.90;;;;;;5073791;28;20732;-73
2023/09/30 02:49:21;;;;;;;7.57;3.80;;;15.00;99.90;;;;;;5073945;28;20669;-73
2023/09/30 02:51:47;;;;;;;7.87;3.70;;;15.00;99.90;;;;;;5051645;28;20238;-73
2023/09/30 02:54:15;;;;;;;6.07;3.30;;;15.00;99.90;;;;;;5061193;28;20586;-73
2023/09/30 02:56:42;;;;;;;5.32;3.10;;;15.00;99.90;;;;;;5053648;28;20183;-74
2023/09/30 02:59:07;;;;;;;9.13;3.87;;;15.00;99.90;;;;;;5056864;28;20680;-73
2023/09/30 03:01:34;;;;;;;7.77;3.20;;;14.90;99.90;;;;;;5074235;28;20593;-73
2023/09/30 03:04:00;;;;;;;6.00;3.53;;;15.00;99.90;;;;;;5057159;28;20174;-73
2023/09/30 03:06:26;;;;;;;5.47;3.03;;;14.90;99.90;;;;;;5056629;28;20584;-73
2023/09/30 03:08:52;;;;;;;7.63;3.97;;;14.90;99.90;;;;;;5073477;28;20618;-73
2023/09/30 03:11:19;;;;;;;9.03;3.43;;;14.90;99.90;;;;;;5073623;28;20515;-73
2023/09/30 03:13:45;;;;;;;10.90;3.87;;;14.90;99.90;;;;;;5073487;28;20720;-73
2023/09/30 03:16:11;;;;;;;6.37;3.37;;;14.90;99.90;;;;;;5056663;28;20582;-73
2023/09/30 03:18:37;;;;;;;12.00;4.53;;;14.90;99.90;;;;;;5091499;28;20594;-73
2023/09/30 03:21:14;;;;;;;7.40;3.10;;;14.90;99.90;;;;;;5091490;28;20584;-73
2023/09/30 03:23:40;;;;;;;6.47;3.90;;;14.90;99.90;;;;;;5065502;28;20241;-73
2023/09/30 03:26:09;;;;;;;6.90;3.60;;;14.90;99.90;;;;;;5053066;28;20586;-73
2023/09/30 03:28:37;;;;;;;6.23;3.17;;;14.90;99.90;;;;;;5071017;28;20646;-73
2023/09/30 03:31:04;;;;;;;7.93;3.60;;;14.90;99.90;;;;;;5053124;28;20601;-73
2023/09/30 03:33:34;;;;;;;9.57;3.87;;;14.90;99.90;;;;;;5053230;28;20587;-74
2023/09/30 03:36:00;;;;;;;9.10;3.72;;;14.90;99.90;;;;;;5052893;28;21009;-73
2023/09/30 03:38:29;;;;;;;7.37;3.77;;;14.80;99.90;;;;;;5059189;28;20641;-73
2023/09/30 03:40:56;;;;;;;5.67;3.67;;;14.80;99.90;;;;;;5073247;28;20588;-74
2023/09/30 03:43:23;;;;;;;5.47;3.33;;;14.80;99.90;;;;;;5091296;28;20578;-73
2023/09/30 03:45:50;;;;;;;8.13;3.30;;;14.70;99.90;;;;;;5071953;28;20578;-73
2023/09/30 03:48:16;;;;;;;6.30;3.83;;;14.70;99.90;;;;;;5079077;28;21210;-73
2023/09/30 03:50:42;;;;;;;11.18;4.05;;;14.70;99.90;;;;;;5070770;28;20940;-73
2023/09/30 03:53:09;;;;;;;5.97;3.60;;;14.60;99.90;;;;;;5072979;28;20275;-73
2023/09/30 03:55:35;;;;;;;7.60;3.83;;;14.60;99.90;;;;;;5090963;28;20939;-73
2023/09/30 03:58:02;;;;;;;7.13;3.50;;;14.60;99.90;;;;;;5072474;28;20639;-73
2023/09/30 04:00:28;;;;;;;6.90;3.72;;;14.50;99.90;;;;;;5072927;28;20586;-73
2023/09/30 04:02:58;;;;;;;9.30;4.07;;;14.60;99.90;;;;;;5063183;28;20314;-73
2023/09/30 04:05:28;;;;;;;9.20;4.33;;;14.50;99.90;;;;;;5070433;28;20586;-73
2023/09/30 04:07:58;;;;;;;9.13;3.65;;;14.50;99.90;;;;;;5052339;28;20757;-73
2023/09/30 04:10:23;;;;;;;7.15;3.63;;;14.50;99.90;;;;;;5032702;28;20251;-73
2023/09/30 04:12:49;;;;;;;8.80;4.33;;;14.50;99.90;;;;;;5049827;28;20259;-73
2023/09/30 04:15:15;;;;;;;5.77;3.80;;;14.50;99.90;;;;;;5070218;28;20660;-73
2023/09/30 04:17:41;;;;;;;8.10;3.80;;;14.50;99.90;;;;;;5032595;28;20711;-73
2023/09/30 04:20:10;;;;;;;8.13;4.93;;;14.50;99.90;;;;;;5051930;28;20605;-73
2023/09/30 04:22:36;;;;;;;9.13;3.87;;;14.50;99.90;;;;;;5070566;28;20168;-73
2023/09/30 04:25:08;;;;;;;7.10;3.60;;;14.50;99.90;;;;;;5052257;28;20590;-73
2023/09/30 04:27:34;;;;;;;8.80;3.60;;;14.50;99.90;;;;;;5032579;28;20200;-73
2023/09/30 04:30:00;;;;;;;11.03;4.00;;;14.50;99.90;;;;;;5050952;28;20179;-73
2023/09/30 04:32:27;;;;;;;10.93;4.57;;;14.40;99.90;;;;;;5052516;28;20176;-73
2023/09/30 04:34:53;;;;;;;7.90;4.23;;;14.40;99.90;;;;;;5070026;28;20685;-72
2023/09/30 04:37:19;;;;;;;6.73;3.93;;;14.40;99.90;;;;;;5070296;28;20713;-73
2023/09/30 04:39:44;;;;;;;5.40;3.40;;;14.40;99.90;;;;;;5070459;28;21189;-73
2023/09/30 04:42:11;;;;;;;7.17;4.10;;;14.40;99.90;;;;;;5052438;28;20698;-72
2023/09/30 04:44:38;;;;;;;8.15;4.25;;;14.40;99.90;;;;;;5052073;28;20187;-72
2023/09/30 04:47:04;;;;;;;11.03;4.50;;;14.40;99.90;;;;;;5072567;28;20542;-73
2023/09/30 04:49:30;;;;;;;10.10;5.03;;;14.40;99.90;;;;;;5072312;28;20582;-73
2023/09/30 04:51:56;;;;;;;8.13;3.80;;;14.40;99.90;;;;;;5055571;28;20544;-73
2023/09/30 04:54:22;;;;;;;8.60;4.80;;;14.40;99.90;;;;;;5072211;28;20638;-73
2023/09/30 04:56:48;;;;;;;7.77;4.33;;;14.40;99.90;;;;;;5057595;28;20593;-72
2023/09/30 04:59:14;;;;;;;7.87;4.30;;;14.40;99.90;;;;;;5094182;28;20272;-72
2023/09/30 05:01:39;;;;;;;8.30;5.30;;;14.40;99.90;;;;;;5094197;28;20653;-72
2023/09/30 05:04:05;;;;;;;11.30;4.30;;;14.40;99.90;;;;;;5057000;28;20606;-72
2023/09/30 05:06:32;;;;;;;9.50;5.20;;;14.30;99.90;;;;;;5055548;28;20179;-73
2023/09/30 05:08:59;;;;;;;10.40;5.20;;;14.30;99.90;;;;;;5073548;28;20204;-73
2023/09/30 05:11:24;;;;;;;11.20;5.78;;;14.30;99.90;;;;;;5055885;28;20635;-72
2023/09/30 05:13:50;;;;;;;8.70;5.70;;;14.30;99.90;;;;;;5056180;28;20184;-73
2023/09/30 05:16:17;;;;;;;8.98;6.00;;;14.30;99.90;;;;;;5075486;28;20172;-72
2023/09/30 05:18:43;;;;;;;8.65;5.70;;;14.20;99.90;;;;;;5093776;28;20195;-72
2023/09/30 05:21:10;;;;;;;10.67;8.27;;;14.20;99.90;;;;;;5058932;28;20168;-73
2023/09/30 05:23:38;;;;;;;11.97;5.90;;;14.20;99.90;;;;;;5094003;28;20172;-72
2023/09/30 05:26:03;;;;;;;8.35;5.43;;;14.20;99.90;;;;;;5075337;28;20581;-72
2023/09/30 05:28:29;;;;;;;6.80;5.60;;;14.20;99.90;;;;;;5079532;28;20208;-72
2023/09/30 05:30:55;;;;;;;7.27;5.27;;;14.20;99.90;;;;;;5056143;28;20184;-72
2023/09/30 05:33:22;;;;;;;10.13;5.70;;;14.30;99.90;;;;;;5075576;28;20178;-72
2023/09/30 05:35:48;;;;;;;9.05;5.25;;;14.30;99.90;;;;;;5075406;28;20187;-73
2023/09/30 05:38:14;;;;;;;10.37;5.63;;;14.30;99.90;;;;;;5075290;28;20192;-73
2023/09/30 05:40:39;;;;;;;9.93;5.30;;;14.30;99.90;;;;;;5075461;28;20179;-73
2023/09/30 05:43:07;;;;;;;6.53;5.30;;;14.30;99.90;;;;;;5093729;28;20180;-72
2023/09/30 05:45:36;;;;;;;9.97;5.20;;;14.30;99.90;;;;;;5075526;28;20585;-72
2023/09/30 05:48:07;;;;;;;7.13;4.80;;;14.30;99.90;;;;;;5093705;28;20218;-72
2023/09/30 05:50:36;;;;;;;13.57;6.20;;;14.40;99.90;;;;;;5097732;28;20583;-72
2023/09/30 05:53:03;;;;;;;6.47;5.20;;;14.40;99.90;;;;;;5075865;28;20174;-73
2023/09/30 05:55:29;;;;;;;6.63;4.87;;;14.40;99.90;;;;;;5061971;28;20183;-73
2023/09/30 05:57:55;;;;;;;8.93;5.90;;;14.50;99.90;;;;;;5073332;28;20679;-73
2023/09/30 06:00:22;;;;;;;10.00;5.10;;;14.50;99.90;;;;;;5051187;28;20628;-73
2023/09/30 06:02:51;;;;;;;12.03;6.17;;;14.50;99.90;;;;;;5076932;28;20583;-73
2023/09/30 06:05:22;;;;;;;8.90;5.30;;;14.60;99.90;;;;;;5054708;28;21146;-73
2023/09/30 06:07:48;;;;;;;7.63;4.90;;;14.70;99.90;;;;;;5053877;28;20687;-73
2023/09/30 06:10:18;;;;;;;10.20;5.03;;;14.80;99.90;;;;;;5063186;28;20613;-73
2023/09/30 06:12:54;;;;;;;7.90;3.87;;;14.80;99.90;;;;;;5072727;28;20989;-73
2023/09/30 06:15:21;;;;;;;9.80;4.57;;;14.90;99.90;;;;;;5054533;28;21174;-73
2023/09/30 06:17:49;;;;;;;8.40;4.90;;;15.00;99.90;;;;;;5038063;28;20622;-73
2023/09/30 06:20:17;;;;;;;7.20;4.47;;;15.10;99.90;;;;;;5054636;28;20593;-72
2023/09/30 06:22:49;;;;;;;7.50;4.87;;;15.20;99.90;;;;;;5053188;28;21364;-72
2023/09/30 06:25:18;;;;;;;6.77;4.00;;;15.20;99.90;;;;;;5092477;28;20586;-73
2023/09/30 06:27:44;;;;;;;9.00;4.60;;;15.30;99.90;;;;;;5067402;28;20642;-73
2023/09/30 06:30:11;;;;;;;5.47;4.23;;;15.30;99.90;;;;;;5054355;28;20685;-72
2023/09/30 06:32:37;;;;;;;7.40;4.30;;;15.30;99.90;;;;;;5054416;28;20671;-72
2023/09/30 06:35:05;;;;;;;10.83;5.17;;;15.30;99.90;;;;;;5063662;28;20686;-72
2023/09/30 06:37:32;;;;;;;5.10;4.30;;;15.40;99.90;;;;;;5074450;28;20783;-72
2023/09/30 06:39:58;;;;;;;9.80;5.30;;;15.40;99.90;;;;;;5074132;28;20634;-72
2023/09/30 06:42:27;;;;;;;9.10;5.00;;;15.40;99.90;;;;;;5074202;28;20650;-72
2023/09/30 06:44:53;;;;;;;10.87;4.93;;;15.50;99.90;;;;;;5074103;28;20601;-73
2023/09/30 06:47:18;;;;;;;8.20;4.70;;;15.50;99.90;;;;;;5091843;28;20775;-72
2023/09/30 06:49:46;;;;;;;5.97;4.43;;;15.50;99.90;;;;;;5092179;28;20672;-72
2023/09/30 06:52:12;;;;;;;10.40;5.10;;;15.50;99.90;;;;;;5091882;28;20187;-72
2023/09/30 06:54:37;;;;;;;10.23;5.13;;;15.50;99.90;;;;;;5057006;28;20577;-72
2023/09/30 06:57:03;;;;;;;6.80;5.73;;;15.50;99.90;;;;;;5073507;28;20184;-71
2023/09/30 06:59:29;;;;;;;10.90;5.87;;;15.60;99.90;;;;;;5071442;28;20539;-72
2023/09/30 07:01:54;;;;;;;5.27;4.37;;;15.60;99.90;;;;;;5054621;28;20587;-72
2023/09/30 07:04:21;;;;;;;7.83;5.20;;;15.70;99.90;;;;;;5032555;28;20177;-72
2023/09/30 07:06:47;;;;;;;7.90;5.10;;;15.80;99.90;;;;;;5061246;28;20238;-73
2023/09/30 07:09:13;;;;;;;7.13;5.20;;;15.90;99.90;;;;;;5077193;28;20673;-73
2023/09/30 07:11:38;;;;;;;8.50;4.70;;;16.00;99.90;;;;;;5050883;28;20249;-73
2023/09/30 07:14:04;;;;;;;8.40;5.67;;;16.00;99.90;;;;;;5045077;28;20512;-73
2023/09/30 07:16:30;;;;;;;10.27;6.60;;;16.10;99.90;;;;;;5031874;28;20173;-73
2023/09/30 07:18:56;;;;;;;8.80;5.80;;;16.20;99.90;;;;;;5049657;28;20676;-73
2023/09/30 07:21:21;;;;;;;7.57;5.73;;;16.30;99.90;;;;;;5053081;28;20210;-73
2023/09/30 07:23:48;;;;;;;9.13;6.17;;;16.40;99.90;;;;;;5071296;28;20208;-73
2023/09/30 07:26:14;;;;;;;8.00;5.10;;;16.50;99.90;;;;;;5053096;28;20271;-73
2023/09/30 07:28:43;;;;;;;8.70;5.70;;;16.60;99.90;;;;;;5033731;28;20643;-72
2023/09/30 07:31:08;;;;;;;8.83;5.70;;;16.70;99.90;;;;;;5069140;28;20594;-73
2023/09/30 07:33:35;;;;;;;7.43;5.67;;;16.90;99.90;;;;;;5048477;28;20173;-73
2023/09/30 07:36:01;;;;;;;6.63;5.80;;;17.40;99.90;;;;;;5038944;28;20181;-72
2023/09/30 07:38:26;;;;;;;8.50;5.93;;;18.00;99.90;;;;;;5051556;28;20664;-73
2023/09/30 07:40:52;;;;;;;7.00;5.47;;;18.80;99.90;;;;;;5068995;28;20267;-73
2023/09/30 07:43:20;;;;;;;8.20;4.80;;;19.60;99.90;;;;;;5036452;28;20179;-73
2023/09/30 07:45:46;;;;;;;5.90;4.47;;;20.60;99.90;;;;;;5052901;28;20176;-73
2023/09/30 07:48:11;;;;;;;5.07;4.50;;;21.60;99.90;;;;;;5054682;28;20654;-73
2023/09/30 07:50:39;;;;;;;6.60;3.70;;;22.60;99.90;;;;;;5073220;28;20652;-73
2023/09/30 07:53:04;;;;;;;4.33;3.10;;;23.60;99.90;;;;;;5068678;28;20590;-74
2023/09/30 07:55:30;;;;;;;4.33;3.70;;;24.50;99.90;;;;;;5044933;28;20636;-74
2023/09/30 07:57:59;;;;;;;7.03;4.20;;;25.40;99.90;;;;;;5045492;28;20223;-74
2023/09/30 08:00:25;;;;;;;4.47;3.77;;;26.20;99.90;;;;;;5071767;28;20190;-74
2023/09/30 08:02:51;;;;;;;4.53;3.43;;;26.80;99.90;;;;;;5050525;28;20630;-74
2023/09/30 08:05:16;;;;;;;4.97;3.90;;;27.40;99.90;;;;;;5060645;28;20630;-74
2023/09/30 08:07:42;;;;;;;5.37;3.73;;;27.90;99.90;;;;;;5050357;28;20653;-73
2023/09/30 08:10:13;;;;;;;5.63;3.50;;;28.30;99.90;;;;;;5056137;28;20273;-74
2023/09/30 08:12:39;;;;;;;5.63;4.37;;;28.50;99.90;;;;;;5048428;28;20210;-74
2023/09/30 08:15:06;;;;;;;6.33;3.70;;;28.80;99.90;;;;;;5052074;28;20587;-74
2023/09/30 08:17:33;;;;;;;4.97;3.23;;;28.90;99.90;;;;;;5035560;28;20618;-74
2023/09/30 08:19:59;;;;;;;5.43;3.90;;;29.10;99.90;;;;;;5053698;28;20687;-74
2023/09/30 08:22:27;;;;;;;5.47;3.77;;;29.50;99.90;;;;;;5032769;28;20684;-74
2023/09/30 08:24:54;;;;;;;3.80;3.00;;;29.90;99.90;;;;;;5052559;28;20213;-74
2023/09/30 08:27:20;;;;;;;4.70;3.40;;;30.20;99.90;;;;;;5052553;28;20653;-74
2023/09/30 08:29:46;;;;;;;5.37;3.40;;;30.50;99.90;;;;;;5054795;28;20589;-74
2023/09/30 08:32:11;;;;;;;5.93;3.90;;;30.90;99.90;;;;;;5072817;28;20226;-74
2023/09/30 08:34:37;;;;;;;4.20;3.10;;;31.20;99.90;;;;;;5069891;28;21133;-74
2023/09/30 08:37:03;;;;;;;4.30;2.90;;;31.40;99.90;;;;;;5059821;28;20178;-75
2023/09/30 08:39:29;;;;;;;8.73;3.70;;;31.80;99.90;;;;;;5076725;28;20557;-75
2023/09/30 08:41:56;;;;;;;5.03;3.37;;;32.20;99.90;;;;;;5076503;28;20623;-75
2023/09/30 08:44:22;;;;;;;5.73;3.30;;;32.60;99.90;;;;;;5076300;28;20663;-75
2023/09/30 08:46:48;;;;;;;5.00;3.40;;;33.10;99.90;;;;;;5049926;28;20643;-74
2023/09/30 08:49:15;;;;;;;4.00;3.17;;;33.10;99.90;;;;;;5050643;28;20202;-75
2023/09/30 08:51:41;;;;;;;4.17;3.20;;;33.20;99.90;;;;;;5076404;28;20585;-75
2023/09/30 08:54:07;;;;;;;3.43;2.93;;;33.30;99.90;;;;;;5059726;28;21155;-75
2023/09/30 08:56:33;;;;;;;4.90;3.67;;;33.30;99.20;;;;;;5093872;28;20589;-75
2023/09/30 08:59:00;;;;;;;4.80;3.80;;;33.40;98.40;;;;;;5073993;28;20214;-75
2023/09/30 09:01:30;;;;;;;4.87;4.20;;;33.30;97.80;;;;;;5031039;28;20636;-75
2023/09/30 09:03:57;;;;;;;4.33;3.47;;;33.40;97.90;;;;;;5036213;28;20583;-75
2023/09/30 09:06:24;;;;;;;4.40;3.37;;;33.70;97.50;;;;;;5038793;28;20590;-75
2023/09/30 09:08:51;;;;;;;4.60;3.80;;;34.00;97.30;;;;;;5035686;28;20704;-75
2023/09/30 09:11:18;;;;;;;5.27;3.50;;;34.00;95.30;;;;;;5055656;28;20582;-75
2023/09/30 09:13:55;;;;;;;6.27;3.40;;;34.00;95.30;;;;;;5055869;28;20612;-75
2023/09/30 09:16:22;;;;;;;4.87;3.00;;;34.20;90.90;;;;;;5073448;28;20922;-75
2023/09/30 09:18:49;;;;;;;5.10;3.93;;;34.30;93.30;;;;;;5073473;28;20614;-75
2023/09/30 09:21:23;;;;;;;6.53;4.10;;;34.20;88.10;;;;;;5055682;28;20586;-75
2023/09/30 09:23:50;;;;;;;3.87;3.43;;;34.00;88.70;;;;;;5059318;28;20618;-75
2023/09/30 09:26:26;;;;;;;5.90;3.90;;;33.60;85.20;;;;;;5063901;28;20689;-75
2023/09/30 09:28:59;;;;;;;4.80;3.83;;;32.90;83.20;;;;;;5070618;28;20621;-75
2023/09/30 09:31:34;;;;;;;4.33;3.67;;;32.50;82.50;;;;;;5093641;28;20944;-75
2023/09/30 09:34:01;;;;;;;4.33;3.93;;;32.10;82.00;;;;;;5093760;28;20988;-75
2023/09/30 09:36:44;;;;;;;6.90;4.90;;;31.70;83.40;;;;;;5075451;28;21233;-75
2023/09/30 09:39:14;;;;;;;5.30;4.43;;;31.50;83.10;;;;;;5058424;28;20627;-75
2023/09/30 09:41:54;;;;;;;4.50;3.73;;;31.40;84.30;;;;;;5075281;28;20588;-75
2023/09/30 09:44:25;;;;;;;6.30;4.07;;;31.60;85.20;;;;;;5090218;28;20596;-75
2023/09/30 09:46:50;;;;;;;6.30;4.17;;;31.60;86.40;;;;;;5055219;28;20649;-75
2023/09/30 09:49:17;;;;;;;6.47;4.07;;;31.80;87.50;;;;;;5072990;28;21170;-75
2023/09/30 09:51:48;;;;;;;6.30;4.13;;;31.90;87.00;;;;;;5055170;28;20641;-75
2023/09/30 09:54:15;;;;;;;5.47;4.70;;;32.10;85.00;;;;;;5055068;28;20589;-75
2023/09/30 09:56:44;;;;;;;9.20;5.60;;;32.30;85.30;;;;;;5054863;28;20586;-75
2023/09/30 09:59:12;;;;;;;8.67;6.17;;;32.00;81.00;;;;;;5054835;28;20629;-75
2023/09/30 10:01:40;;;;;;;6.97;5.33;;;31.60;79.90;;;;;;5053102;28;20607;-76
2023/09/30 10:04:06;;;;;;;5.33;4.27;;;31.20;81.70;;;;;;5094424;28;20626;-75
2023/09/30 10:06:38;;;;;;;6.03;5.43;;;31.30;83.10;;;;;;5093178;28;20605;-74
2023/09/30 10:09:10;;;;;;;6.20;5.43;;;31.20;82.70;;;;;;5075191;28;20623;-74
2023/09/30 10:11:36;;;;;;;6.67;4.80;;;31.40;82.80;;;;;;5089202;28;20581;-74
2023/09/30 10:14:07;;;;;;;11.43;6.70;;;31.40;82.20;;;;;;5055544;28;20667;-74
2023/09/30 10:16:36;;;;;;;5.17;4.67;;;31.10;78.40;;;;;;5047236;28;20706;-74
2023/09/30 10:19:22;;;;;;;6.40;3.80;;;30.70;78.60;;;;;;5054791;28;20667;-74
2023/09/30 10:22:19;;;;;;;7.37;4.47;;;30.30;80.50;;;;;;5054997;28;20587;-74
2023/09/30 10:24:46;;;;;;;6.47;4.67;;;30.20;75.30;;;;;;5071597;28;20578;-74
2023/09/30 10:27:33;;;;;;;5.63;5.13;;;30.00;81.30;;;;;;5057100;28;20675;-74
2023/09/30 10:30:02;;;;;;;8.00;4.90;;;29.60;80.20;;;;;;5054738;28;20586;-74
2023/09/30 10:32:58;;;;;;;5.33;3.80;;;29.00;79.90;;;;;;5072266;28;20681;-74
2023/09/30 10:35:30;;;;;;;6.33;4.50;;;28.60;81.30;;;;;;5072021;28;20571;-72
2023/09/30 10:38:21;;;;;;;7.90;3.83;;;28.20;81.10;;;;;;5054201;28;21182;-72
2023/09/30 10:40:47;;;;;;;8.10;4.17;;;27.80;80.60;;;;;;5037538;28;20682;-73
2023/09/30 10:43:36;;;;;;;5.00;3.80;;;27.30;80.40;;;;;;5054168;28;20589;-72
2023/09/30 10:46:26;;;;;;;5.40;3.37;;;26.80;80.60;;;;;;5053913;28;20602;-72
2023/09/30 10:48:52;;;;;;;4.70;3.20;;;26.50;82.30;;;;;;5071860;28;20677;-72
2023/09/30 10:51:21;;;;;;;5.43;3.67;;;26.20;83.30;;;;;;5053889;28;21171;-72
2023/09/30 10:53:48;;;;;;;4.20;2.87;;;25.90;83.80;;;;;;5053813;28;20578;-72
2023/09/30 10:56:15;;;;;;;5.57;3.00;;;25.70;84.90;;;;;;5071512;28;20594;-73
2023/09/30 10:58:41;;;;;;;6.90;3.23;;;25.50;85.60;;;;;;5071500;28;20626;-73
2023/09/30 11:01:07;;;;;;;6.07;2.37;;;25.40;86.40;;;;;;5053764;28;20590;-73
2023/09/30 11:03:33;;;;;;;5.27;2.77;;;25.30;87.00;;;;;;5071743;28;20176;-73
2023/09/30 11:05:59;;;;;;;4.80;2.30;;;25.10;86.90;;;;;;5052102;28;20584;-73
2023/09/30 11:08:29;;;;;;;5.10;2.03;;;25.00;87.30;;;;;;5073369;28;20566;-73
2023/09/30 11:10:56;;;;;;;3.70;2.10;;;24.90;87.10;;;;;;5073412;28;20578;-74
2023/09/30 11:13:22;;;;;;;6.90;3.27;;;24.80;87.70;;;;;;5073474;28;20778;-73
2023/09/30 11:16:01;;;;;;;6.70;3.37;;;24.70;88.20;;;;;;5073554;28;20577;-73
2023/09/30 11:18:26;;;;;;;5.93;2.90;;;24.60;88.60;;;;;;5050771;28;20622;-73
2023/09/30 11:21:14;;;;;;;6.80;3.40;;;24.60;90.20;;;;;;5034872;28;20603;-73
2023/09/30 11:23:41;;;;;;;5.20;2.63;;;24.70;90.00;;;;;;5051753;28;20267;-72
2023/09/30 11:26:07;;;;;;;4.90;2.93;;;24.80;90.10;;;;;;5052976;28;21156;-73
2023/09/30 11:28:39;;;;;;;5.13;2.43;;;24.80;90.10;;;;;;5060783;28;20653;-78
2023/09/30 11:31:11;;;;;;;4.60;2.17;;;24.90;90.20;;;;;;5079777;28;20582;-78
2023/09/30 11:33:56;;;;;;;4.53;1.70;;;25.00;91.00;;;;;;5053626;28;20585;-77
2023/09/30 11:36:22;;;;;;;4.30;2.03;;;25.30;91.90;;;;;;5052453;28;20590;-77
2023/09/30 11:38:49;;;;;;;3.57;1.57;;;25.80;93.40;;;;;;5064830;28;20619;-77
2023/09/30 11:41:18;;;;;;;5.40;1.50;;;26.30;93.80;;;;;;5071521;28;20594;-78
2023/09/30 11:44:14;;;;;;;3.30;1.73;;;26.80;94.00;;;;;;5064856;28;20633;-78
2023/09/30 11:46:55;;;;;;;3.77;1.60;;;27.40;93.00;;;;;;5060607;28;20594;-78
2023/09/30 11:49:38;;;;;;;3.57;1.60;;;28.00;93.60;;;;;;5071167;28;20589;-78
2023/09/30 11:52:07;;;;;;;4.30;1.73;;;28.50;91.50;;;;;;5080189;28;20611;-78
2023/09/30 11:54:44;;;;;;;4.83;1.67;;;28.80;90.80;;;;;;5053121;28;20594;-78
2023/09/30 11:57:12;;;;;;;3.83;1.90;;;28.80;87.30;;;;;;5069266;28;20585;-78
2023/09/30 11:59:41;;;;;;;6.60;1.67;;;28.70;85.70;;;;;;5062927;28;20959;-78
2023/09/30 12:02:08;;;;;;;4.40;1.60;;;28.50;83.90;;;;;;5060564;28;20589;-78
2023/09/30 12:04:37;;;;;;;4.23;1.60;;;28.20;83.10;;;;;;5074404;28;20668;-78
2023/09/30 12:07:03;;;;;;;2.63;1.30;;;28.00;81.70;;;;;;5074865;28;21258;-77
2023/09/30 12:09:30;;;;;;;3.50;1.40;;;27.60;81.00;;;;;;5070736;28;20580;-78
2023/09/30 12:11:57;;;;;;;4.90;1.53;;;27.30;80.60;;;;;;5061063;28;21154;-78
2023/09/30 12:14:24;;;;;;;3.57;1.60;;;26.90;80.00;;;;;;5080894;28;20931;-77
2023/09/30 12:16:50;;;;;;;4.47;1.53;;;26.50;79.60;;;;;;5057576;28;20595;-78
2023/09/30 12:19:19;;;;;;;4.07;1.27;;;26.10;79.70;;;;;;5067681;28;20638;-78
2023/09/30 12:21:48;;;;;;;3.70;1.33;;;25.80;79.70;;;;;;5083584;28;20570;-78
2023/09/30 12:24:19;;;;;;;3.00;1.33;;;25.40;80.30;;;;;;5082725;28;20565;-78
2023/09/30 12:26:49;;;;;;;4.00;1.40;;;25.10;80.20;;;;;;5064469;28;20672;-78
2023/09/30 12:29:17;;;;;;;4.53;1.53;;;24.80;80.20;;;;;;5094998;28;20605;-78
2023/09/30 12:31:47;;;;;;;4.73;1.60;;;24.50;81.00;;;;;;5071555;28;20676;-78
2023/09/30 12:34:13;;;;;;;4.87;1.67;;;24.30;81.70;;;;;;5070732;28;21066;-78
2023/09/30 12:36:39;;;;;;;4.00;1.57;;;24.10;82.80;;;;;;5070491;28;20914;-80
2023/09/30 12:39:12;;;;;;;3.40;1.37;;;24.00;84.40;;;;;;5061151;28;20690;-78
2023/09/30 12:41:39;;;;;;;2.43;1.47;;;24.00;85.50;;;;;;5072475;28;20922;-78
2023/09/30 12:44:06;;;;;;;5.13;3.13;;;24.00;86.00;;;;;;5072449;28;20589;-79
2023/09/30 12:46:34;;;;;;;5.70;2.93;;;24.00;86.20;;;;;;5055475;28;20619;-78
2023/09/30 12:49:03;;;;;;;3.00;1.73;;;24.00;86.40;;;;;;5060562;28;20713;-79